ADDS METAR Data INFO
IDs: Format: Raw Decoded Include TAF

Data at: 0923 UTC 17 Oct 2017

KFDR 170853Z AUTO 16008KT 10SM CLR 09/05 A3022 RMK AO2 SLP225 T00940050 56012
KFDR 170753Z AUTO 17005KT 10SM CLR 09/04 A3023 RMK AO2 SLP229 T00940044
KFDR 170653Z AUTO 16008KT 10SM CLR 10/06 A3024 RMK AO2 SLP232 T01000056
KFDR 170553Z AUTO 15008KT 10SM CLR 10/06 A3025 RMK AO2 SLP239 T01000056 10183 20100 402220061 58003
KFDR 170453Z AUTO 15006KT 10SM CLR 12/06 A3027 RMK AO2 SLP242 T01220061
KFDR 170353Z AUTO 17004KT 10SM CLR 12/06 A3027 RMK AO2 SLP242 T01220056
KFDR 170253Z AUTO 15007KT 10SM CLR 14/06 A3026 RMK AO2 SLP242 T01390061 51004
KFDR 170153Z AUTO 14008KT 10SM CLR 13/06 A3026 RMK AO2 SLP243 T01330056
KFDR 170053Z AUTO 13005KT 10SM CLR 15/05 A3026 RMK AO2 SLP243 T01500050
KFDR 162353Z AUTO 14004KT 10SM CLR 18/04 A3025 RMK AO2 SLP239 T01830044 10222 20183 56012
KFDR 162253Z AUTO 15004KT 10SM CLR 21/02 A3026 RMK AO2 SLP240 T02110017
KFDR 162153Z AUTO 10SM CLR 22/02 A3028 RMK AO2 SLP245 T02170017
KFDR 162053Z AUTO 13003KT 10SM CLR 21/01 A3029 RMK AO2 SLP250 T02110011 56037
KFDR 161953Z AUTO 00000KT 10SM CLR 21/01 A3032 RMK AO2 SLP259 T02110006
KFDR 161853Z AUTO 12006KT 10SM CLR 21/02 A3036 RMK AO2 SLP273 T02060017
KFDR 161753Z AUTO VRB04KT 10SM CLR 20/02 A3040 RMK AO2 SLP289 T02000017 10200 20061 58013
KFDR 161653Z AUTO VRB05KT 10SM CLR 18/02 A3043 RMK AO2 SLP299 T01830022
KFDR 161553Z AUTO VRB03KT 10SM CLR 17/03 A3045 RMK AO2 SLP306 T01670033
KFDR 161453Z AUTO 10003KT 10SM CLR 14/05 A3044 RMK AO2 SLP305 T01440050 53009
KFDR 161353Z AUTO 00000KT 6SM HZ CLR 10/07 A3043 RMK AO2 SLP301 T01000067
KFDR 161301Z AUTO 00000KT 3SM BR CLR 07/04 A3042 RMK AO2 T00670044 $
KFDR 161253Z AUTO 00000KT 1SM BR CLR 07/04 A3042 RMK AO2 SLP300 T00670044 $
KFDR 161249Z AUTO 00000KT 1 1/2SM HZ CLR 07/04 A3043 RMK AO2 $
KFDR 161238Z AUTO 35005KT 10SM FEW002 06/03 A3042 RMK AO2 T00610033 $
KFDR 161153Z AUTO 36003KT 3SM HZ CLR 08/04 A3042 RMK AO2 SLP295 T00780039 10100 20067 53004 $
KFDR 161053Z AUTO 36004KT 9SM CLR 08/04 A3041 RMK AO2 SLP290 T00830039 $
KFDR 160953Z AUTO 01007KT 10SM CLR 09/04 A3040 RMK AO2 SLP287 T00890044 $
KFDR 160853Z AUTO 02007KT 10SM CLR 08/04 A3040 RMK AO2 SLP289 T00830044 58001 $
KFDR 160753Z AUTO 02006KT 10SM CLR 09/04 A3041 RMK AO2 SLP290 T00940039 $
KFDR 160653Z AUTO 02007KT 10SM CLR 10/04 A3041 RMK AO2 SLP291 T01000044 $
KFDR 160553Z AUTO 01007KT 10SM CLR 09/05 A3040 RMK AO2 SLP289 T00940050 10172 20094 402220094 51007 $
KFDR 160453Z AUTO 01008KT 10SM CLR 09/06 A3040 RMK AO2 SLP290 T00940056 $
KFDR 160353Z AUTO 02008KT 10SM CLR 11/05 A3040 RMK AO2 SLP289 T01060050 $
KFDR 160253Z AUTO 01008KT 10SM CLR 11/06 A3038 RMK AO2 SLP284 T01110056 51015 $
KFDR 160153Z AUTO 36008KT 10SM CLR 12/05 A3037 RMK AO2 SLP281 T01170050 $
KFDR 160053Z AUTO 01006KT 10SM CLR 13/05 A3035 RMK AO2 SLP273 T01330050 $
KFDR 152353Z AUTO 02006KT 10SM CLR 17/03 A3034 RMK AO2 SLP267 T01720033 10222 20172 55003 $
KFDR 152253Z AUTO 01014KT 10SM CLR 21/02 A3033 RMK AO2 SLP262 T02060017 $
KFDR 152153Z AUTO 01012G20KT 10SM CLR 22/02 A3034 RMK AO2 SLP264 T02170017 $